sensor_id;sensor_type;location;lat;lon;timestamp;P1;durP1;ratioP1;P2;durP2;ratioP2
67528;SDS011;54366;51.980;5.856;2024-02-23T00:01:53;3.40;;;0.30;;
67528;SDS011;54366;51.980;5.856;2024-02-23T00:04:19;1.92;;;0.30;;
67528;SDS011;54366;51.980;5.856;2024-02-23T00:06:45;0.88;;;0.22;;
67528;SDS011;54366;51.980;5.856;2024-02-23T00:09:12;1.90;;;0.20;;
67528;SDS011;54366;51.980;5.856;2024-02-23T00:11:41;2.15;;;0.20;;
67528;SDS011;54366;51.980;5.856;2024-02-23T00:14:10;2.10;;;0.40;;
67528;SDS011;54366;51.980;5.856;2024-02-23T00:16:41;2.90;;;0.55;;
67528;SDS011;54366;51.980;5.856;2024-02-23T00:19:08;3.33;;;0.43;;
67528;SDS011;54366;51.980;5.856;2024-02-23T00:21:38;3.20;;;0.50;;
67528;SDS011;54366;51.980;5.856;2024-02-23T00:24:05;1.85;;;0.40;;
67528;SDS011;54366;51.980;5.856;2024-02-23T00:26:32;2.75;;;0.50;;
67528;SDS011;54366;51.980;5.856;2024-02-23T00:28:58;1.23;;;0.28;;
67528;SDS011;54366;51.980;5.856;2024-02-23T00:31:24;1.90;;;0.30;;
67528;SDS011;54366;51.980;5.856;2024-02-23T00:33:51;1.95;;;0.50;;
67528;SDS011;54366;51.980;5.856;2024-02-23T00:36:17;2.42;;;0.52;;
67528;SDS011;54366;51.980;5.856;2024-02-23T00:38:43;2.72;;;0.60;;
67528;SDS011;54366;51.980;5.856;2024-02-23T00:41:10;2.42;;;0.60;;
67528;SDS011;54366;51.980;5.856;2024-02-23T00:43:39;1.05;;;0.30;;
67528;SDS011;54366;51.980;5.856;2024-02-23T00:46:09;1.55;;;0.60;;
67528;SDS011;54366;51.980;5.856;2024-02-23T00:48:35;2.28;;;0.60;;
67528;SDS011;54366;51.980;5.856;2024-02-23T00:51:02;2.30;;;0.68;;
67528;SDS011;54366;51.980;5.856;2024-02-23T00:53:30;2.88;;;0.60;;
67528;SDS011;54366;51.980;5.856;2024-02-23T00:55:57;3.72;;;0.60;;
67528;SDS011;54366;51.980;5.856;2024-02-23T00:58:23;1.95;;;0.40;;
67528;SDS011;54366;51.980;5.856;2024-02-23T01:00:50;1.48;;;0.55;;
67528;SDS011;54366;51.980;5.856;2024-02-23T01:03:16;3.10;;;0.65;;
67528;SDS011;54366;51.980;5.856;2024-02-23T01:05:42;1.40;;;0.50;;
67528;SDS011;54366;51.980;5.856;2024-02-23T01:08:08;3.17;;;0.60;;
67528;SDS011;54366;51.980;5.856;2024-02-23T01:10:35;0.95;;;0.68;;
67528;SDS011;54366;51.980;5.856;2024-02-23T01:13:01;1.67;;;0.47;;
67528;SDS011;54366;51.980;5.856;2024-02-23T01:15:27;3.35;;;0.80;;
67528;SDS011;54366;51.980;5.856;2024-02-23T01:17:54;2.17;;;1.23;;
67528;SDS011;54366;51.980;5.856;2024-02-23T01:20:21;3.75;;;1.80;;
67528;SDS011;54366;51.980;5.856;2024-02-23T01:22:48;5.38;;;2.20;;
67528;SDS011;54366;51.980;5.856;2024-02-23T01:25:14;3.80;;;2.22;;
67528;SDS011;54366;51.980;5.856;2024-02-23T01:27:41;5.03;;;1.92;;
67528;SDS011;54366;51.980;5.856;2024-02-23T01:30:08;5.57;;;2.00;;
67528;SDS011;54366;51.980;5.856;2024-02-23T01:32:34;4.25;;;2.20;;
67528;SDS011;54366;51.980;5.856;2024-02-23T01:35:03;3.15;;;1.92;;
67528;SDS011;54366;51.980;5.856;2024-02-23T01:37:30;3.70;;;2.05;;
67528;SDS011;54366;51.980;5.856;2024-02-23T01:39:56;4.68;;;1.92;;
67528;SDS011;54366;51.980;5.856;2024-02-23T01:42:23;2.95;;;1.60;;
67528;SDS011;54366;51.980;5.856;2024-02-23T01:44:49;2.65;;;1.15;;
67528;SDS011;54366;51.980;5.856;2024-02-23T01:47:16;3.45;;;1.48;;
67528;SDS011;54366;51.980;5.856;2024-02-23T01:49:42;5.18;;;1.67;;
67528;SDS011;54366;51.980;5.856;2024-02-23T01:52:11;2.83;;;1.23;;
67528;SDS011;54366;51.980;5.856;2024-02-23T01:54:38;4.30;;;1.50;;
67528;SDS011;54366;51.980;5.856;2024-02-23T01:57:05;3.60;;;1.08;;
67528;SDS011;54366;51.980;5.856;2024-02-23T01:59:34;3.10;;;0.85;;
67528;SDS011;54366;51.980;5.856;2024-02-23T02:02:03;1.65;;;0.80;;
67528;SDS011;54366;51.980;5.856;2024-02-23T02:04:30;3.15;;;0.80;;
67528;SDS011;54366;51.980;5.856;2024-02-23T02:06:57;3.97;;;1.30;;
67528;SDS011;54366;51.980;5.856;2024-02-23T02:09:25;2.67;;;0.93;;
67528;SDS011;54366;51.980;5.856;2024-02-23T02:11:51;4.78;;;1.08;;
67528;SDS011;54366;51.980;5.856;2024-02-23T02:14:18;2.72;;;0.90;;
67528;SDS011;54366;51.980;5.856;2024-02-23T02:16:44;3.78;;;0.93;;
67528;SDS011;54366;51.980;5.856;2024-02-23T02:19:12;2.13;;;0.50;;
67528;SDS011;54366;51.980;5.856;2024-02-23T02:21:38;3.60;;;1.10;;
67528;SDS011;54366;51.980;5.856;2024-02-23T02:24:06;2.85;;;0.90;;
67528;SDS011;54366;51.980;5.856;2024-02-23T02:26:32;2.35;;;0.73;;
67528;SDS011;54366;51.980;5.856;2024-02-23T02:29:00;3.33;;;0.60;;
67528;SDS011;54366;51.980;5.856;2024-02-23T02:31:26;3.83;;;0.90;;
67528;SDS011;54366;51.980;5.856;2024-02-23T02:33:53;1.75;;;0.60;;
67528;SDS011;54366;51.980;5.856;2024-02-23T02:36:19;3.85;;;0.68;;
67528;SDS011;54366;51.980;5.856;2024-02-23T02:38:45;3.78;;;0.75;;
67528;SDS011;54366;51.980;5.856;2024-02-23T02:41:12;2.97;;;0.77;;
67528;SDS011;54366;51.980;5.856;2024-02-23T02:43:38;4.07;;;0.65;;
67528;SDS011;54366;51.980;5.856;2024-02-23T02:46:04;2.47;;;0.63;;
67528;SDS011;54366;51.980;5.856;2024-02-23T02:48:31;2.40;;;0.50;;
67528;SDS011;54366;51.980;5.856;2024-02-23T02:50:57;1.27;;;0.40;;
67528;SDS011;54366;51.980;5.856;2024-02-23T02:53:23;4.13;;;0.63;;
67528;SDS011;54366;51.980;5.856;2024-02-23T02:55:49;2.13;;;0.52;;
67528;SDS011;54366;51.980;5.856;2024-02-23T02:58:16;2.20;;;0.50;;
67528;SDS011;54366;51.980;5.856;2024-02-23T03:00:42;2.70;;;0.60;;
67528;SDS011;54366;51.980;5.856;2024-02-23T03:03:09;1.85;;;0.50;;
67528;SDS011;54366;51.980;5.856;2024-02-23T03:05:35;4.13;;;0.70;;
67528;SDS011;54366;51.980;5.856;2024-02-23T03:08:01;4.47;;;0.77;;
67528;SDS011;54366;51.980;5.856;2024-02-23T03:10:27;4.65;;;0.63;;
67528;SDS011;54366;51.980;5.856;2024-02-23T03:12:54;6.15;;;0.82;;
67528;SDS011;54366;51.980;5.856;2024-02-23T03:15:20;5.07;;;0.77;;
67528;SDS011;54366;51.980;5.856;2024-02-23T03:17:46;2.53;;;0.85;;
67528;SDS011;54366;51.980;5.856;2024-02-23T03:20:12;2.22;;;0.60;;
67528;SDS011;54366;51.980;5.856;2024-02-23T03:22:41;2.33;;;0.70;;
67528;SDS011;54366;51.980;5.856;2024-02-23T03:25:08;3.65;;;0.60;;
67528;SDS011;54366;51.980;5.856;2024-02-23T03:27:35;3.70;;;0.70;;
67528;SDS011;54366;51.980;5.856;2024-02-23T03:30:02;4.10;;;0.93;;
67528;SDS011;54366;51.980;5.856;2024-02-23T03:32:30;2.63;;;0.50;;
67528;SDS011;54366;51.980;5.856;2024-02-23T03:35:05;2.97;;;0.60;;
67528;SDS011;54366;51.980;5.856;2024-02-23T03:37:32;2.53;;;0.65;;
67528;SDS011;54366;51.980;5.856;2024-02-23T03:39:58;2.97;;;0.65;;
67528;SDS011;54366;51.980;5.856;2024-02-23T03:42:28;3.63;;;0.98;;
67528;SDS011;54366;51.980;5.856;2024-02-23T03:44:54;3.05;;;0.80;;
67528;SDS011;54366;51.980;5.856;2024-02-23T03:47:20;3.55;;;0.70;;
67528;SDS011;54366;51.980;5.856;2024-02-23T03:49:47;3.80;;;0.88;;
67528;SDS011;54366;51.980;5.856;2024-02-23T03:52:13;4.43;;;1.13;;
67528;SDS011;54366;51.980;5.856;2024-02-23T03:54:39;5.47;;;1.30;;
67528;SDS011;54366;51.980;5.856;2024-02-23T03:57:06;3.42;;;0.93;;
67528;SDS011;54366;51.980;5.856;2024-02-23T03:59:32;3.92;;;0.95;;
67528;SDS011;54366;51.980;5.856;2024-02-23T04:02:01;3.38;;;1.35;;
67528;SDS011;54366;51.980;5.856;2024-02-23T04:04:27;4.10;;;1.10;;
67528;SDS011;54366;51.980;5.856;2024-02-23T04:06:54;3.33;;;1.00;;
67528;SDS011;54366;51.980;5.856;2024-02-23T04:09:20;1.63;;;0.65;;
67528;SDS011;54366;51.980;5.856;2024-02-23T04:11:47;2.63;;;0.60;;
67528;SDS011;54366;51.980;5.856;2024-02-23T04:14:14;2.85;;;1.02;;
67528;SDS011;54366;51.980;5.856;2024-02-23T04:16:41;2.97;;;1.05;;
67528;SDS011;54366;51.980;5.856;2024-02-23T04:19:07;4.22;;;1.00;;
67528;SDS011;54366;51.980;5.856;2024-02-23T04:21:33;5.30;;;0.98;;
67528;SDS011;54366;51.980;5.856;2024-02-23T04:24:00;4.97;;;0.90;;
67528;SDS011;54366;51.980;5.856;2024-02-23T04:26:26;2.05;;;0.73;;
67528;SDS011;54366;51.980;5.856;2024-02-23T04:28:52;3.50;;;0.80;;
67528;SDS011;54366;51.980;5.856;2024-02-23T04:31:18;4.88;;;0.88;;
67528;SDS011;54366;51.980;5.856;2024-02-23T04:33:45;3.83;;;0.90;;
67528;SDS011;54366;51.980;5.856;2024-02-23T04:36:11;4.57;;;0.90;;
67528;SDS011;54366;51.980;5.856;2024-02-23T04:38:37;2.55;;;0.70;;
67528;SDS011;54366;51.980;5.856;2024-02-23T04:41:04;4.18;;;0.82;;
67528;SDS011;54366;51.980;5.856;2024-02-23T04:43:33;3.80;;;0.80;;
67528;SDS011;54366;51.980;5.856;2024-02-23T04:45:59;3.45;;;0.80;;
67528;SDS011;54366;51.980;5.856;2024-02-23T04:48:26;2.95;;;0.70;;
67528;SDS011;54366;51.980;5.856;2024-02-23T04:50:52;4.28;;;0.75;;
67528;SDS011;54366;51.980;5.856;2024-02-23T04:53:18;3.63;;;0.82;;
67528;SDS011;54366;51.980;5.856;2024-02-23T04:55:45;2.40;;;0.77;;
67528;SDS011;54366;51.980;5.856;2024-02-23T04:58:11;1.95;;;0.85;;
67528;SDS011;54366;51.980;5.856;2024-02-23T05:00:37;3.67;;;0.80;;
67528;SDS011;54366;51.980;5.856;2024-02-23T05:03:04;2.90;;;0.80;;
67528;SDS011;54366;51.980;5.856;2024-02-23T05:05:32;2.75;;;0.60;;
67528;SDS011;54366;51.980;5.856;2024-02-23T05:07:58;4.70;;;0.95;;
67528;SDS011;54366;51.980;5.856;2024-02-23T05:10:25;2.63;;;0.70;;
67528;SDS011;54366;51.980;5.856;2024-02-23T05:12:51;5.43;;;0.70;;
67528;SDS011;54366;51.980;5.856;2024-02-23T05:15:17;3.92;;;0.85;;
67528;SDS011;54366;51.980;5.856;2024-02-23T05:17:44;4.53;;;1.00;;
67528;SDS011;54366;51.980;5.856;2024-02-23T05:20:10;4.90;;;0.85;;
67528;SDS011;54366;51.980;5.856;2024-02-23T05:22:38;4.57;;;0.90;;
67528;SDS011;54366;51.980;5.856;2024-02-23T05:25:05;4.60;;;0.90;;
67528;SDS011;54366;51.980;5.856;2024-02-23T05:27:32;3.53;;;0.80;;
67528;SDS011;54366;51.980;5.856;2024-02-23T05:29:58;2.53;;;0.98;;
67528;SDS011;54366;51.980;5.856;2024-02-23T05:32:25;3.40;;;0.77;;
67528;SDS011;54366;51.980;5.856;2024-02-23T05:34:51;3.63;;;0.70;;
67528;SDS011;54366;51.980;5.856;2024-02-23T05:37:19;4.20;;;0.93;;
67528;SDS011;54366;51.980;5.856;2024-02-23T05:39:46;2.65;;;0.80;;
67528;SDS011;54366;51.980;5.856;2024-02-23T05:42:12;4.85;;;0.82;;
67528;SDS011;54366;51.980;5.856;2024-02-23T05:44:38;3.65;;;0.90;;
67528;SDS011;54366;51.980;5.856;2024-02-23T05:47:05;3.58;;;0.70;;
67528;SDS011;54366;51.980;5.856;2024-02-23T05:49:31;4.82;;;0.73;;
67528;SDS011;54366;51.980;5.856;2024-02-23T05:51:58;2.75;;;0.80;;
67528;SDS011;54366;51.980;5.856;2024-02-23T05:54:24;4.18;;;0.70;;
67528;SDS011;54366;51.980;5.856;2024-02-23T05:56:50;4.20;;;1.25;;
67528;SDS011;54366;51.980;5.856;2024-02-23T05:59:17;5.20;;;1.38;;
67528;SDS011;54366;51.980;5.856;2024-02-23T06:01:43;2.85;;;0.77;;
67528;SDS011;54366;51.980;5.856;2024-02-23T06:04:09;3.00;;;0.88;;
67528;SDS011;54366;51.980;5.856;2024-02-23T06:06:36;4.50;;;1.25;;
67528;SDS011;54366;51.980;5.856;2024-02-23T06:09:03;3.10;;;0.98;;
67528;SDS011;54366;51.980;5.856;2024-02-23T06:11:31;3.13;;;1.10;;
67528;SDS011;54366;51.980;5.856;2024-02-23T06:13:57;3.50;;;1.00;;
67528;SDS011;54366;51.980;5.856;2024-02-23T06:16:23;5.45;;;1.25;;
67528;SDS011;54366;51.980;5.856;2024-02-23T06:18:50;4.07;;;0.90;;
67528;SDS011;54366;51.980;5.856;2024-02-23T06:21:16;4.60;;;1.08;;
67528;SDS011;54366;51.980;5.856;2024-02-23T06:23:43;4.68;;;1.30;;
67528;SDS011;54366;51.980;5.856;2024-02-23T06:26:10;4.68;;;1.23;;
67528;SDS011;54366;51.980;5.856;2024-02-23T06:28:37;6.07;;;1.30;;
67528;SDS011;54366;51.980;5.856;2024-02-23T06:31:05;3.15;;;0.80;;
67528;SDS011;54366;51.980;5.856;2024-02-23T06:33:31;5.38;;;1.30;;
67528;SDS011;54366;51.980;5.856;2024-02-23T06:35:57;3.92;;;0.90;;
67528;SDS011;54366;51.980;5.856;2024-02-23T06:38:24;2.95;;;0.80;;
67528;SDS011;54366;51.980;5.856;2024-02-23T06:40:51;3.78;;;0.98;;
67528;SDS011;54366;51.980;5.856;2024-02-23T06:43:17;6.07;;;1.00;;
67528;SDS011;54366;51.980;5.856;2024-02-23T06:45:44;3.40;;;0.65;;
67528;SDS011;54366;51.980;5.856;2024-02-23T06:48:10;4.28;;;1.08;;
67528;SDS011;54366;51.980;5.856;2024-02-23T06:50:37;3.92;;;1.00;;
67528;SDS011;54366;51.980;5.856;2024-02-23T06:53:03;3.53;;;1.02;;
67528;SDS011;54366;51.980;5.856;2024-02-23T06:55:29;3.40;;;0.68;;
67528;SDS011;54366;51.980;5.856;2024-02-23T06:57:56;4.18;;;0.80;;
67528;SDS011;54366;51.980;5.856;2024-02-23T07:00:22;4.30;;;0.93;;
67528;SDS011;54366;51.980;5.856;2024-02-23T07:02:48;3.60;;;0.77;;
67528;SDS011;54366;51.980;5.856;2024-02-23T07:05:15;4.13;;;1.10;;
67528;SDS011;54366;51.980;5.856;2024-02-23T07:07:41;3.42;;;0.90;;
67528;SDS011;54366;51.980;5.856;2024-02-23T07:10:08;5.15;;;1.00;;
67528;SDS011;54366;51.980;5.856;2024-02-23T07:12:36;3.22;;;0.70;;
67528;SDS011;54366;51.980;5.856;2024-02-23T07:15:02;4.80;;;1.10;;
67528;SDS011;54366;51.980;5.856;2024-02-23T07:17:29;2.88;;;1.02;;
67528;SDS011;54366;51.980;5.856;2024-02-23T07:19:55;5.32;;;0.80;;
67528;SDS011;54366;51.980;5.856;2024-02-23T07:22:28;3.67;;;0.80;;
67528;SDS011;54366;51.980;5.856;2024-02-23T07:24:55;2.55;;;0.80;;
67528;SDS011;54366;51.980;5.856;2024-02-23T07:27:21;4.35;;;1.00;;
67528;SDS011;54366;51.980;5.856;2024-02-23T07:29:47;4.57;;;1.10;;
67528;SDS011;54366;51.980;5.856;2024-02-23T07:32:14;3.95;;;1.08;;
67528;SDS011;54366;51.980;5.856;2024-02-23T07:34:40;4.82;;;1.02;;
67528;SDS011;54366;51.980;5.856;2024-02-23T07:37:06;4.32;;;0.82;;
67528;SDS011;54366;51.980;5.856;2024-02-23T07:39:32;5.32;;;0.88;;
67528;SDS011;54366;51.980;5.856;2024-02-23T07:41:59;4.70;;;0.90;;
67528;SDS011;54366;51.980;5.856;2024-02-23T07:44:25;4.35;;;0.95;;
67528;SDS011;54366;51.980;5.856;2024-02-23T07:46:52;4.95;;;0.85;;
67528;SDS011;54366;51.980;5.856;2024-02-23T07:49:20;4.13;;;1.10;;
67528;SDS011;54366;51.980;5.856;2024-02-23T07:51:47;6.50;;;1.52;;
67528;SDS011;54366;51.980;5.856;2024-02-23T07:54:14;4.53;;;1.00;;
67528;SDS011;54366;51.980;5.856;2024-02-23T07:56:40;6.78;;;1.13;;
67528;SDS011;54366;51.980;5.856;2024-02-23T07:59:06;4.28;;;0.90;;
67528;SDS011;54366;51.980;5.856;2024-02-23T08:01:33;3.53;;;0.73;;
67528;SDS011;54366;51.980;5.856;2024-02-23T08:03:59;5.57;;;1.08;;
67528;SDS011;54366;51.980;5.856;2024-02-23T08:06:26;4.18;;;0.70;;
67528;SDS011;54366;51.980;5.856;2024-02-23T08:08:52;5.15;;;1.10;;
67528;SDS011;54366;51.980;5.856;2024-02-23T08:11:20;4.93;;;1.00;;
67528;SDS011;54366;51.980;5.856;2024-02-23T08:13:47;5.25;;;0.95;;
67528;SDS011;54366;51.980;5.856;2024-02-23T08:16:15;8.55;;;1.13;;
67528;SDS011;54366;51.980;5.856;2024-02-23T08:18:42;3.92;;;0.95;;
67528;SDS011;54366;51.980;5.856;2024-02-23T08:21:09;4.57;;;0.98;;
67528;SDS011;54366;51.980;5.856;2024-02-23T08:23:36;3.53;;;1.00;;
67528;SDS011;54366;51.980;5.856;2024-02-23T08:26:03;3.97;;;0.70;;
67528;SDS011;54366;51.980;5.856;2024-02-23T08:28:29;4.13;;;0.98;;
67528;SDS011;54366;51.980;5.856;2024-02-23T08:30:55;4.22;;;0.95;;
67528;SDS011;54366;51.980;5.856;2024-02-23T08:33:22;5.95;;;1.13;;
67528;SDS011;54366;51.980;5.856;2024-02-23T08:35:48;6.55;;;0.95;;
67528;SDS011;54366;51.980;5.856;2024-02-23T08:38:14;5.20;;;0.98;;
67528;SDS011;54366;51.980;5.856;2024-02-23T08:40:41;5.53;;;0.70;;
67528;SDS011;54366;51.980;5.856;2024-02-23T08:43:07;5.82;;;1.42;;
67528;SDS011;54366;51.980;5.856;2024-02-23T08:45:34;5.68;;;1.02;;
67528;SDS011;54366;51.980;5.856;2024-02-23T08:48:00;6.38;;;1.00;;
67528;SDS011;54366;51.980;5.856;2024-02-23T08:50:29;4.20;;;0.73;;
67528;SDS011;54366;51.980;5.856;2024-02-23T08:52:56;3.65;;;0.85;;
67528;SDS011;54366;51.980;5.856;2024-02-23T08:55:22;6.50;;;1.23;;
67528;SDS011;54366;51.980;5.856;2024-02-23T08:57:49;5.47;;;1.20;;
67528;SDS011;54366;51.980;5.856;2024-02-23T09:00:16;3.28;;;0.63;;
67528;SDS011;54366;51.980;5.856;2024-02-23T09:02:42;4.25;;;1.00;;
67528;SDS011;54366;51.980;5.856;2024-02-23T09:05:09;6.90;;;1.10;;
67528;SDS011;54366;51.980;5.856;2024-02-23T09:07:35;4.30;;;0.73;;
67528;SDS011;54366;51.980;5.856;2024-02-23T09:10:02;3.85;;;0.80;;
67528;SDS011;54366;51.980;5.856;2024-02-23T09:12:30;7.00;;;1.00;;
67528;SDS011;54366;51.980;5.856;2024-02-23T09:14:56;4.57;;;0.95;;
67528;SDS011;54366;51.980;5.856;2024-02-23T09:17:23;5.35;;;0.70;;
67528;SDS011;54366;51.980;5.856;2024-02-23T09:19:51;4.88;;;1.00;;
67528;SDS011;54366;51.980;5.856;2024-02-23T09:22:21;5.75;;;0.90;;
67528;SDS011;54366;51.980;5.856;2024-02-23T09:24:48;5.05;;;0.88;;
67528;SDS011;54366;51.980;5.856;2024-02-23T09:27:14;4.38;;;1.08;;
67528;SDS011;54366;51.980;5.856;2024-02-23T09:29:41;3.72;;;0.90;;
67528;SDS011;54366;51.980;5.856;2024-02-23T09:32:08;4.32;;;0.80;;
67528;SDS011;54366;51.980;5.856;2024-02-23T09:34:34;3.92;;;0.80;;
67528;SDS011;54366;51.980;5.856;2024-02-23T09:37:00;4.38;;;0.70;;
67528;SDS011;54366;51.980;5.856;2024-02-23T09:39:26;4.18;;;0.98;;
67528;SDS011;54366;51.980;5.856;2024-02-23T09:41:56;3.83;;;0.80;;
67528;SDS011;54366;51.980;5.856;2024-02-23T09:44:31;4.95;;;0.85;;
67528;SDS011;54366;51.980;5.856;2024-02-23T09:47:02;7.00;;;1.20;;
67528;SDS011;54366;51.980;5.856;2024-02-23T09:49:37;3.47;;;0.90;;
67528;SDS011;54366;51.980;5.856;2024-02-23T09:52:07;4.20;;;0.95;;
67528;SDS011;54366;51.980;5.856;2024-02-23T09:54:36;5.70;;;0.80;;
67528;SDS011;54366;51.980;5.856;2024-02-23T09:57:06;4.60;;;1.00;;
67528;SDS011;54366;51.980;5.856;2024-02-23T09:59:37;3.75;;;0.85;;
67528;SDS011;54366;51.980;5.856;2024-02-23T10:02:09;4.97;;;0.80;;
67528;SDS011;54366;51.980;5.856;2024-02-23T10:04:42;3.72;;;1.02;;
67528;SDS011;54366;51.980;5.856;2024-02-23T10:07:09;4.43;;;0.77;;
67528;SDS011;54366;51.980;5.856;2024-02-23T10:09:36;4.22;;;0.80;;
67528;SDS011;54366;51.980;5.856;2024-02-23T10:12:02;3.83;;;0.93;;
67528;SDS011;54366;51.980;5.856;2024-02-23T10:14:29;4.90;;;0.93;;
67528;SDS011;54366;51.980;5.856;2024-02-23T10:16:55;5.72;;;1.08;;
67528;SDS011;54366;51.980;5.856;2024-02-23T10:19:22;7.05;;;0.88;;
67528;SDS011;54366;51.980;5.856;2024-02-23T10:21:54;5.05;;;0.90;;
67528;SDS011;54366;51.980;5.856;2024-02-23T10:24:22;4.00;;;0.82;;
67528;SDS011;54366;51.980;5.856;2024-02-23T10:26:49;3.95;;;0.60;;
67528;SDS011;54366;51.980;5.856;2024-02-23T10:29:16;4.85;;;0.70;;
67528;SDS011;54366;51.980;5.856;2024-02-23T10:31:43;3.15;;;0.65;;
67528;SDS011;54366;51.980;5.856;2024-02-23T10:34:13;2.35;;;0.70;;
67528;SDS011;54366;51.980;5.856;2024-02-23T10:36:41;4.35;;;0.77;;
67528;SDS011;54366;51.980;5.856;2024-02-23T10:39:08;6.20;;;0.90;;
67528;SDS011;54366;51.980;5.856;2024-02-23T10:41:35;3.60;;;0.73;;
67528;SDS011;54366;51.980;5.856;2024-02-23T10:44:05;4.50;;;0.82;;
67528;SDS011;54366;51.980;5.856;2024-02-23T10:46:33;2.58;;;0.80;;
67528;SDS011;54366;51.980;5.856;2024-02-23T10:48:59;2.88;;;0.57;;
67528;SDS011;54366;51.980;5.856;2024-02-23T10:51:26;2.97;;;0.63;;
67528;SDS011;54366;51.980;5.856;2024-02-23T10:53:53;3.28;;;0.50;;
67528;SDS011;54366;51.980;5.856;2024-02-23T10:56:20;3.42;;;0.60;;
67528;SDS011;54366;51.980;5.856;2024-02-23T10:58:48;3.08;;;0.45;;
67528;SDS011;54366;51.980;5.856;2024-02-23T11:01:14;3.65;;;0.55;;
67528;SDS011;54366;51.980;5.856;2024-02-23T11:03:42;5.07;;;0.82;;
67528;SDS011;54366;51.980;5.856;2024-02-23T11:06:12;1.92;;;0.70;;
67528;SDS011;54366;51.980;5.856;2024-02-23T11:08:39;1.95;;;0.57;;
67528;SDS011;54366;51.980;5.856;2024-02-23T11:11:08;3.08;;;0.50;;
67528;SDS011;54366;51.980;5.856;2024-02-23T11:13:36;3.58;;;0.50;;
67528;SDS011;54366;51.980;5.856;2024-02-23T11:16:07;3.13;;;0.60;;
67528;SDS011;54366;51.980;5.856;2024-02-23T11:18:37;4.50;;;0.70;;
67528;SDS011;54366;51.980;5.856;2024-02-23T11:21:05;2.05;;;0.50;;
67528;SDS011;54366;51.980;5.856;2024-02-23T11:23:45;1.45;;;0.40;;
67528;SDS011;54366;51.980;5.856;2024-02-23T11:26:17;2.05;;;0.40;;
67528;SDS011;54366;51.980;5.856;2024-02-23T11:28:49;3.38;;;0.50;;
67528;SDS011;54366;51.980;5.856;2024-02-23T11:31:20;2.90;;;0.55;;
67528;SDS011;54366;51.980;5.856;2024-02-23T11:33:52;1.80;;;0.30;;
67528;SDS011;54366;51.980;5.856;2024-02-23T11:41:31;2.63;;;0.70;;
67528;SDS011;54366;51.980;5.856;2024-02-23T11:43:57;2.33;;;0.70;;
67528;SDS011;54366;51.980;5.856;2024-02-23T11:46:24;2.38;;;0.57;;
67528;SDS011;54366;51.980;5.856;2024-02-23T11:48:50;2.35;;;0.73;;
67528;SDS011;54366;51.980;5.856;2024-02-23T11:51:20;2.63;;;0.60;;
67528;SDS011;54366;51.980;5.856;2024-02-23T11:53:47;1.77;;;0.45;;
67528;SDS011;54366;51.980;5.856;2024-02-23T11:56:13;3.25;;;0.70;;
67528;SDS011;54366;51.980;5.856;2024-02-23T11:58:40;2.40;;;0.60;;
67528;SDS011;54366;51.980;5.856;2024-02-23T12:01:07;1.75;;;0.50;;
67528;SDS011;54366;51.980;5.856;2024-02-23T12:03:34;1.77;;;0.50;;
67528;SDS011;54366;51.980;5.856;2024-02-23T12:06:01;3.25;;;0.70;;
67528;SDS011;54366;51.980;5.856;2024-02-23T12:08:29;1.85;;;0.60;;
67528;SDS011;54366;51.980;5.856;2024-02-23T12:11:06;1.92;;;0.50;;
67528;SDS011;54366;51.980;5.856;2024-02-23T12:13:37;3.17;;;0.60;;
67528;SDS011;54366;51.980;5.856;2024-02-23T12:16:04;3.97;;;0.75;;
67528;SDS011;54366;51.980;5.856;2024-02-23T12:18:33;3.15;;;0.73;;
67528;SDS011;54366;51.980;5.856;2024-02-23T12:21:00;2.60;;;0.75;;
67528;SDS011;54366;51.980;5.856;2024-02-23T12:23:40;1.88;;;0.50;;
67528;SDS011;54366;51.980;5.856;2024-02-23T12:26:12;4.55;;;0.70;;
67528;SDS011;54366;51.980;5.856;2024-02-23T12:28:39;2.35;;;0.70;;
67528;SDS011;54366;51.980;5.856;2024-02-23T12:31:06;2.67;;;0.52;;
67528;SDS011;54366;51.980;5.856;2024-02-23T12:33:35;3.35;;;0.63;;
67528;SDS011;54366;51.980;5.856;2024-02-23T12:36:03;3.50;;;0.80;;
67528;SDS011;54366;51.980;5.856;2024-02-23T12:38:30;2.22;;;0.65;;
67528;SDS011;54366;51.980;5.856;2024-02-23T12:40:57;3.13;;;0.80;;
67528;SDS011;54366;51.980;5.856;2024-02-23T12:43:24;3.13;;;0.68;;
67528;SDS011;54366;51.980;5.856;2024-02-23T12:45:54;3.30;;;0.68;;
67528;SDS011;54366;51.980;5.856;2024-02-23T12:48:21;2.25;;;0.52;;
67528;SDS011;54366;51.980;5.856;2024-02-23T12:50:48;3.40;;;0.60;;
67528;SDS011;54366;51.980;5.856;2024-02-23T12:53:34;2.55;;;0.77;;
67528;SDS011;54366;51.980;5.856;2024-02-23T12:56:05;3.10;;;0.80;;
67528;SDS011;54366;51.980;5.856;2024-02-23T12:58:40;4.07;;;0.88;;
67528;SDS011;54366;51.980;5.856;2024-02-23T13:01:07;3.05;;;0.50;;
67528;SDS011;54366;51.980;5.856;2024-02-23T13:03:35;2.13;;;0.63;;
67528;SDS011;54366;51.980;5.856;2024-02-23T13:06:02;3.83;;;1.15;;
67528;SDS011;54366;51.980;5.856;2024-02-23T13:08:29;2.10;;;0.77;;
67528;SDS011;54366;51.980;5.856;2024-02-23T13:10:55;3.13;;;0.77;;
67528;SDS011;54366;51.980;5.856;2024-02-23T13:13:23;3.72;;;0.80;;
67528;SDS011;54366;51.980;5.856;2024-02-23T13:15:50;2.97;;;0.95;;
67528;SDS011;54366;51.980;5.856;2024-02-23T13:18:17;3.58;;;0.75;;
67528;SDS011;54366;51.980;5.856;2024-02-23T13:20:45;2.00;;;0.73;;
67528;SDS011;54366;51.980;5.856;2024-02-23T13:23:11;2.50;;;0.90;;
67528;SDS011;54366;51.980;5.856;2024-02-23T13:25:39;2.38;;;0.60;;
67528;SDS011;54366;51.980;5.856;2024-02-23T13:28:06;2.03;;;0.70;;
67528;SDS011;54366;51.980;5.856;2024-02-23T13:30:33;1.77;;;0.65;;
67528;SDS011;54366;51.980;5.856;2024-02-23T13:33:00;1.48;;;0.60;;
67528;SDS011;54366;51.980;5.856;2024-02-23T13:35:26;2.28;;;0.50;;
67528;SDS011;54366;51.980;5.856;2024-02-23T13:37:53;2.00;;;0.43;;
67528;SDS011;54366;51.980;5.856;2024-02-23T13:40:20;1.67;;;0.40;;
67528;SDS011;54366;51.980;5.856;2024-02-23T13:42:46;1.58;;;0.55;;
67528;SDS011;54366;51.980;5.856;2024-02-23T13:45:16;2.72;;;0.77;;
67528;SDS011;54366;51.980;5.856;2024-02-23T13:47:43;3.47;;;0.57;;
67528;SDS011;54366;51.980;5.856;2024-02-23T13:50:24;2.08;;;0.55;;
67528;SDS011;54366;51.980;5.856;2024-02-23T13:52:50;1.95;;;0.60;;
67528;SDS011;54366;51.980;5.856;2024-02-23T13:55:16;2.03;;;0.60;;
67528;SDS011;54366;51.980;5.856;2024-02-23T13:57:43;2.13;;;0.70;;
67528;SDS011;54366;51.980;5.856;2024-02-23T14:00:09;1.75;;;0.68;;
67528;SDS011;54366;51.980;5.856;2024-02-23T14:02:38;2.13;;;0.60;;
67528;SDS011;54366;51.980;5.856;2024-02-23T14:05:08;1.48;;;0.73;;
67528;SDS011;54366;51.980;5.856;2024-02-23T14:07:34;3.45;;;0.70;;
67528;SDS011;54366;51.980;5.856;2024-02-23T14:10:01;3.55;;;0.95;;
67528;SDS011;54366;51.980;5.856;2024-02-23T14:12:28;2.72;;;1.13;;
67528;SDS011;54366;51.980;5.856;2024-02-23T14:14:55;3.50;;;1.08;;
67528;SDS011;54366;51.980;5.856;2024-02-23T14:17:21;2.55;;;0.80;;
67528;SDS011;54366;51.980;5.856;2024-02-23T14:19:47;2.22;;;0.70;;
67528;SDS011;54366;51.980;5.856;2024-02-23T14:22:16;4.53;;;0.90;;
67528;SDS011;54366;51.980;5.856;2024-02-23T14:24:43;2.20;;;0.70;;
67528;SDS011;54366;51.980;5.856;2024-02-23T14:27:09;3.03;;;0.75;;
67528;SDS011;54366;51.980;5.856;2024-02-23T14:29:36;4.55;;;0.93;;
67528;SDS011;54366;51.980;5.856;2024-02-23T14:32:04;3.67;;;1.00;;
67528;SDS011;54366;51.980;5.856;2024-02-23T14:34:30;3.75;;;0.70;;
67528;SDS011;54366;51.980;5.856;2024-02-23T14:36:59;3.97;;;0.75;;
67528;SDS011;54366;51.980;5.856;2024-02-23T14:39:25;3.20;;;0.90;;
67528;SDS011;54366;51.980;5.856;2024-02-23T14:41:51;2.08;;;0.60;;
67528;SDS011;54366;51.980;5.856;2024-02-23T14:44:18;1.95;;;0.60;;
67528;SDS011;54366;51.980;5.856;2024-02-23T14:46:44;1.23;;;0.40;;
67528;SDS011;54366;51.980;5.856;2024-02-23T14:49:10;2.30;;;0.90;;
67528;SDS011;54366;51.980;5.856;2024-02-23T14:51:37;3.58;;;0.82;;
67528;SDS011;54366;51.980;5.856;2024-02-23T14:54:04;3.05;;;0.80;;